sensor_id;sensor_type;location;lat;lon;timestamp;temperature;humidity
18287;DHT22;9269;50.838;12.094;2023-02-15T00:00:21;6.00;57.70
18287;DHT22;9269;50.838;12.094;2023-02-15T00:02:50;5.80;57.30
18287;DHT22;9269;50.838;12.094;2023-02-15T00:05:20;6.00;57.70
18287;DHT22;9269;50.838;12.094;2023-02-15T00:07:50;5.90;57.50
18287;DHT22;9269;50.838;12.094;2023-02-15T00:10:21;6.00;57.70
18287;DHT22;9269;50.838;12.094;2023-02-15T00:12:51;6.10;57.80
18287;DHT22;9269;50.838;12.094;2023-02-15T00:15:20;5.90;57.40
18287;DHT22;9269;50.838;12.094;2023-02-15T00:17:50;5.90;57.70
18287;DHT22;9269;50.838;12.094;2023-02-15T00:20:18;5.70;57.30
18287;DHT22;9269;50.838;12.094;2023-02-15T00:22:47;5.80;57.10
18287;DHT22;9269;50.838;12.094;2023-02-15T00:25:17;5.50;57.40
18287;DHT22;9269;50.838;12.094;2023-02-15T00:27:47;5.60;57.60
18287;DHT22;9269;50.838;12.094;2023-02-15T00:30:16;5.70;57.20
18287;DHT22;9269;50.838;12.094;2023-02-15T00:32:47;5.50;57.30
18287;DHT22;9269;50.838;12.094;2023-02-15T00:35:16;5.60;57.60
18287;DHT22;9269;50.838;12.094;2023-02-15T00:37:44;5.60;57.40
18287;DHT22;9269;50.838;12.094;2023-02-15T00:40:13;5.50;57.30
18287;DHT22;9269;50.838;12.094;2023-02-15T00:42:44;5.60;57.40
18287;DHT22;9269;50.838;12.094;2023-02-15T00:45:12;5.70;57.30
18287;DHT22;9269;50.838;12.094;2023-02-15T00:47:44;5.60;57.50
18287;DHT22;9269;50.838;12.094;2023-02-15T00:50:13;5.60;57.60
18287;DHT22;9269;50.838;12.094;2023-02-15T00:52:42;5.60;56.90
18287;DHT22;9269;50.838;12.094;2023-02-15T00:55:10;5.40;57.40
18287;DHT22;9269;50.838;12.094;2023-02-15T00:57:39;5.40;57.20
18287;DHT22;9269;50.838;12.094;2023-02-15T01:00:10;5.40;57.00
18287;DHT22;9269;50.838;12.094;2023-02-15T01:02:39;5.40;56.70
18287;DHT22;9269;50.838;12.094;2023-02-15T01:05:07;5.30;57.10
18287;DHT22;9269;50.838;12.094;2023-02-15T01:07:36;5.50;56.70
18287;DHT22;9269;50.838;12.094;2023-02-15T01:10:05;5.20;56.90
18287;DHT22;9269;50.838;12.094;2023-02-15T01:12:34;5.30;56.40
18287;DHT22;9269;50.838;12.094;2023-02-15T01:15:03;5.40;56.80
18287;DHT22;9269;50.838;12.094;2023-02-15T01:17:34;5.20;56.90
18287;DHT22;9269;50.838;12.094;2023-02-15T01:20:02;5.30;57.20
18287;DHT22;9269;50.838;12.094;2023-02-15T01:22:31;5.10;57.30
18287;DHT22;9269;50.838;12.094;2023-02-15T01:24:59;5.30;56.90
18287;DHT22;9269;50.838;12.094;2023-02-15T01:27:28;5.30;56.60
18287;DHT22;9269;50.838;12.094;2023-02-15T01:29:59;5.30;56.70
18287;DHT22;9269;50.838;12.094;2023-02-15T01:32:28;5.30;56.70
18287;DHT22;9269;50.838;12.094;2023-02-15T01:34:58;5.20;56.40
18287;DHT22;9269;50.838;12.094;2023-02-15T01:37:26;5.10;56.60
18287;DHT22;9269;50.838;12.094;2023-02-15T01:39:55;5.10;56.50
18287;DHT22;9269;50.838;12.094;2023-02-15T01:42:24;5.10;56.50
18287;DHT22;9269;50.838;12.094;2023-02-15T01:44:54;5.30;56.70
18287;DHT22;9269;50.838;12.094;2023-02-15T01:47:26;5.20;56.70
18287;DHT22;9269;50.838;12.094;2023-02-15T01:50:07;5.20;56.70
18287;DHT22;9269;50.838;12.094;2023-02-15T01:52:40;5.20;56.50
18287;DHT22;9269;50.838;12.094;2023-02-15T01:55:11;5.00;56.70
18287;DHT22;9269;50.838;12.094;2023-02-15T01:57:40;5.20;56.60
18287;DHT22;9269;50.838;12.094;2023-02-15T02:00:11;5.30;56.60
18287;DHT22;9269;50.838;12.094;2023-02-15T02:02:42;5.10;56.60
18287;DHT22;9269;50.838;12.094;2023-02-15T02:05:13;5.10;56.30
18287;DHT22;9269;50.838;12.094;2023-02-15T02:07:44;5.20;56.60
18287;DHT22;9269;50.838;12.094;2023-02-15T02:12:46;5.00;56.40
18287;DHT22;9269;50.838;12.094;2023-02-15T02:15:16;4.80;56.20
18287;DHT22;9269;50.838;12.094;2023-02-15T02:17:58;4.70;56.10
18287;DHT22;9269;50.838;12.094;2023-02-15T02:20:48;5.10;56.90
18287;DHT22;9269;50.838;12.094;2023-02-15T02:23:27;4.80;56.40
18287;DHT22;9269;50.838;12.094;2023-02-15T02:26:16;4.80;56.20
18287;DHT22;9269;50.838;12.094;2023-02-15T02:29:20;4.80;56.40
18287;DHT22;9269;50.838;12.094;2023-02-15T02:32:14;4.80;56.40
18287;DHT22;9269;50.838;12.094;2023-02-15T02:34:51;4.90;56.50
18287;DHT22;9269;50.838;12.094;2023-02-15T02:37:28;4.60;56.50
18287;DHT22;9269;50.838;12.094;2023-02-15T02:40:04;4.70;56.50
18287;DHT22;9269;50.838;12.094;2023-02-15T02:42:37;4.70;56.70
18287;DHT22;9269;50.838;12.094;2023-02-15T02:45:09;4.90;56.50
18287;DHT22;9269;50.838;12.094;2023-02-15T02:47:44;4.80;56.10
18287;DHT22;9269;50.838;12.094;2023-02-15T02:50:18;4.70;56.20
18287;DHT22;9269;50.838;12.094;2023-02-15T02:52:51;4.80;56.30
18287;DHT22;9269;50.838;12.094;2023-02-15T02:55:27;4.80;56.10
18287;DHT22;9269;50.838;12.094;2023-02-15T02:58:01;4.60;56.20
18287;DHT22;9269;50.838;12.094;2023-02-15T03:00:36;4.70;56.00
18287;DHT22;9269;50.838;12.094;2023-02-15T03:03:09;4.80;56.20
18287;DHT22;9269;50.838;12.094;2023-02-15T03:05:43;4.50;56.40
18287;DHT22;9269;50.838;12.094;2023-02-15T03:08:14;4.70;56.20
18287;DHT22;9269;50.838;12.094;2023-02-15T03:10:52;4.80;56.10
18287;DHT22;9269;50.838;12.094;2023-02-15T03:13:22;4.70;56.30
18287;DHT22;9269;50.838;12.094;2023-02-15T03:15:52;4.40;56.20
18287;DHT22;9269;50.838;12.094;2023-02-15T03:18:43;4.60;56.20
18287;DHT22;9269;50.838;12.094;2023-02-15T03:21:24;4.60;56.10
18287;DHT22;9269;50.838;12.094;2023-02-15T03:23:57;4.50;56.40
18287;DHT22;9269;50.838;12.094;2023-02-15T03:26:29;4.70;56.10
18287;DHT22;9269;50.838;12.094;2023-02-15T03:28:59;4.60;56.20
18287;DHT22;9269;50.838;12.094;2023-02-15T03:31:31;4.70;56.30
18287;DHT22;9269;50.838;12.094;2023-02-15T03:34:03;4.40;56.30
18287;DHT22;9269;50.838;12.094;2023-02-15T03:36:43;4.60;56.30
18287;DHT22;9269;50.838;12.094;2023-02-15T03:39:18;4.40;56.00
18287;DHT22;9269;50.838;12.094;2023-02-15T03:41:54;4.70;56.20
18287;DHT22;9269;50.838;12.094;2023-02-15T03:44:28;4.60;56.00
18287;DHT22;9269;50.838;12.094;2023-02-15T03:47:02;4.70;56.20
18287;DHT22;9269;50.838;12.094;2023-02-15T03:49:39;4.60;56.40
18287;DHT22;9269;50.838;12.094;2023-02-15T03:52:11;4.50;56.10
18287;DHT22;9269;50.838;12.094;2023-02-15T03:54:41;4.50;56.30
18287;DHT22;9269;50.838;12.094;2023-02-15T03:57:15;4.40;56.40
18287;DHT22;9269;50.838;12.094;2023-02-15T04:00:05;4.20;56.40
18287;DHT22;9269;50.838;12.094;2023-02-15T04:03:12;4.50;56.50
18287;DHT22;9269;50.838;12.094;2023-02-15T04:05:45;4.50;56.10
18287;DHT22;9269;50.838;12.094;2023-02-15T04:08:18;4.50;56.30
18287;DHT22;9269;50.838;12.094;2023-02-15T04:10:46;4.50;56.20
18287;DHT22;9269;50.838;12.094;2023-02-15T04:13:19;4.40;56.30
18287;DHT22;9269;50.838;12.094;2023-02-15T04:15:48;4.40;55.90
18287;DHT22;9269;50.838;12.094;2023-02-15T04:18:34;4.50;56.10
18287;DHT22;9269;50.838;12.094;2023-02-15T04:21:21;4.50;56.20
18287;DHT22;9269;50.838;12.094;2023-02-15T04:24:10;4.40;56.10
18287;DHT22;9269;50.838;12.094;2023-02-15T04:26:59;4.50;55.80
18287;DHT22;9269;50.838;12.094;2023-02-15T04:29:28;4.30;56.00
18287;DHT22;9269;50.838;12.094;2023-02-15T04:31:59;4.40;56.00
18287;DHT22;9269;50.838;12.094;2023-02-15T04:34:30;4.30;56.10
18287;DHT22;9269;50.838;12.094;2023-02-15T04:36:59;4.10;56.00
18287;DHT22;9269;50.838;12.094;2023-02-15T04:39:30;4.20;56.20
18287;DHT22;9269;50.838;12.094;2023-02-15T04:41:59;4.40;56.20
18287;DHT22;9269;50.838;12.094;2023-02-15T04:44:28;4.30;56.20
18287;DHT22;9269;50.838;12.094;2023-02-15T04:46:57;4.40;56.20
18287;DHT22;9269;50.838;12.094;2023-02-15T04:49:26;4.30;56.10
18287;DHT22;9269;50.838;12.094;2023-02-15T04:51:55;3.90;56.20
18287;DHT22;9269;50.838;12.094;2023-02-15T04:54:24;4.10;55.80
18287;DHT22;9269;50.838;12.094;2023-02-15T04:56:55;4.20;56.00
18287;DHT22;9269;50.838;12.094;2023-02-15T04:59:24;4.20;56.00
18287;DHT22;9269;50.838;12.094;2023-02-15T05:01:52;4.20;56.00
18287;DHT22;9269;50.838;12.094;2023-02-15T05:04:21;4.10;55.80
18287;DHT22;9269;50.838;12.094;2023-02-15T05:06:50;4.10;56.00
18287;DHT22;9269;50.838;12.094;2023-02-15T05:09:20;4.10;55.70
18287;DHT22;9269;50.838;12.094;2023-02-15T05:11:49;4.30;56.10
18287;DHT22;9269;50.838;12.094;2023-02-15T05:14:19;4.20;56.30
18287;DHT22;9269;50.838;12.094;2023-02-15T05:16:48;4.20;56.20
18287;DHT22;9269;50.838;12.094;2023-02-15T05:19:17;4.10;55.80
18287;DHT22;9269;50.838;12.094;2023-02-15T05:21:47;4.10;56.00
18287;DHT22;9269;50.838;12.094;2023-02-15T05:24:17;4.10;55.80
18287;DHT22;9269;50.838;12.094;2023-02-15T05:27:03;4.20;55.90
18287;DHT22;9269;50.838;12.094;2023-02-15T05:29:51;4.10;55.90
18287;DHT22;9269;50.838;12.094;2023-02-15T05:32:20;4.00;55.60
18287;DHT22;9269;50.838;12.094;2023-02-15T05:34:49;4.10;55.80
18287;DHT22;9269;50.838;12.094;2023-02-15T05:37:19;4.10;55.80
18287;DHT22;9269;50.838;12.094;2023-02-15T05:39:48;4.10;55.50
18287;DHT22;9269;50.838;12.094;2023-02-15T05:42:17;4.20;55.50
18287;DHT22;9269;50.838;12.094;2023-02-15T05:44:45;4.10;55.60
18287;DHT22;9269;50.838;12.094;2023-02-15T05:47:16;4.20;55.70
18287;DHT22;9269;50.838;12.094;2023-02-15T05:49:45;4.10;55.90
18287;DHT22;9269;50.838;12.094;2023-02-15T05:52:15;4.10;55.90
18287;DHT22;9269;50.838;12.094;2023-02-15T05:54:44;4.10;55.60
18287;DHT22;9269;50.838;12.094;2023-02-15T05:57:13;4.00;55.50
18287;DHT22;9269;50.838;12.094;2023-02-15T05:59:42;4.00;56.00
18287;DHT22;9269;50.838;12.094;2023-02-15T06:02:12;4.20;55.60
18287;DHT22;9269;50.838;12.094;2023-02-15T06:04:42;4.20;55.50
18287;DHT22;9269;50.838;12.094;2023-02-15T06:07:12;4.20;55.50
18287;DHT22;9269;50.838;12.094;2023-02-15T06:09:41;4.00;55.70
18287;DHT22;9269;50.838;12.094;2023-02-15T06:12:11;4.00;55.70
18287;DHT22;9269;50.838;12.094;2023-02-15T06:14:40;4.10;55.40
18287;DHT22;9269;50.838;12.094;2023-02-15T06:17:08;4.00;55.30
18287;DHT22;9269;50.838;12.094;2023-02-15T06:19:37;4.00;55.40
18287;DHT22;9269;50.838;12.094;2023-02-15T06:22:08;4.00;55.00
18287;DHT22;9269;50.838;12.094;2023-02-15T06:24:36;4.00;55.80
18287;DHT22;9269;50.838;12.094;2023-02-15T06:27:08;3.80;55.50
18287;DHT22;9269;50.838;12.094;2023-02-15T06:29:37;4.00;55.30
18287;DHT22;9269;50.838;12.094;2023-02-15T06:32:05;4.00;55.50
18287;DHT22;9269;50.838;12.094;2023-02-15T06:34:35;3.90;55.50
18287;DHT22;9269;50.838;12.094;2023-02-15T06:37:05;3.90;55.40
18287;DHT22;9269;50.838;12.094;2023-02-15T06:39:36;3.80;55.40
18287;DHT22;9269;50.838;12.094;2023-02-15T06:42:05;3.90;55.20
18287;DHT22;9269;50.838;12.094;2023-02-15T06:44:33;4.00;55.50
18287;DHT22;9269;50.838;12.094;2023-02-15T06:47:03;3.80;55.00
18287;DHT22;9269;50.838;12.094;2023-02-15T06:49:32;3.90;55.30
18287;DHT22;9269;50.838;12.094;2023-02-15T06:52:00;3.80;55.40
18287;DHT22;9269;50.838;12.094;2023-02-15T06:54:30;3.80;55.20
18287;DHT22;9269;50.838;12.094;2023-02-15T06:59:30;3.90;55.60
18287;DHT22;9269;50.838;12.094;2023-02-15T07:02:00;3.80;55.50
18287;DHT22;9269;50.838;12.094;2023-02-15T07:04:28;4.00;55.60
18287;DHT22;9269;50.838;12.094;2023-02-15T07:06:59;3.70;55.60
18287;DHT22;9269;50.838;12.094;2023-02-15T07:09:28;4.00;55.40
18287;DHT22;9269;50.838;12.094;2023-02-15T07:11:56;4.00;55.80
18287;DHT22;9269;50.838;12.094;2023-02-15T07:14:44;4.10;55.60
18287;DHT22;9269;50.838;12.094;2023-02-15T07:17:14;4.00;55.80
18287;DHT22;9269;50.838;12.094;2023-02-15T07:20:04;4.10;55.90
18287;DHT22;9269;50.838;12.094;2023-02-15T07:22:34;3.90;55.80
18287;DHT22;9269;50.838;12.094;2023-02-15T07:25:07;4.30;55.50
18287;DHT22;9269;50.838;12.094;2023-02-15T07:27:36;4.10;55.70
18287;DHT22;9269;50.838;12.094;2023-02-15T07:30:09;4.30;55.80
18287;DHT22;9269;50.838;12.094;2023-02-15T07:32:39;4.30;55.80
18287;DHT22;9269;50.838;12.094;2023-02-15T07:35:32;4.30;55.80
18287;DHT22;9269;50.838;12.094;2023-02-15T07:38:03;4.40;55.50
18287;DHT22;9269;50.838;12.094;2023-02-15T07:40:32;4.30;55.80
18287;DHT22;9269;50.838;12.094;2023-02-15T07:43:00;4.50;56.00
18287;DHT22;9269;50.838;12.094;2023-02-15T07:45:30;4.20;55.70
18287;DHT22;9269;50.838;12.094;2023-02-15T07:48:00;4.30;55.90
18287;DHT22;9269;50.838;12.094;2023-02-15T07:50:28;4.40;55.60
18287;DHT22;9269;50.838;12.094;2023-02-15T07:53:00;4.50;56.00
18287;DHT22;9269;50.838;12.094;2023-02-15T07:55:28;4.60;56.20
18287;DHT22;9269;50.838;12.094;2023-02-15T07:57:57;4.60;56.30
18287;DHT22;9269;50.838;12.094;2023-02-15T08:00:27;4.70;56.10
18287;DHT22;9269;50.838;12.094;2023-02-15T08:02:59;4.80;56.30
18287;DHT22;9269;50.838;12.094;2023-02-15T08:05:44;4.70;56.50
18287;DHT22;9269;50.838;12.094;2023-02-15T08:08:13;5.00;56.20
18287;DHT22;9269;50.838;12.094;2023-02-15T08:10:59;4.90;55.90
18287;DHT22;9269;50.838;12.094;2023-02-15T08:13:47;5.10;56.10
18287;DHT22;9269;50.838;12.094;2023-02-15T08:16:31;5.30;55.60
18287;DHT22;9269;50.838;12.094;2023-02-15T08:19:04;5.40;56.00
18287;DHT22;9269;50.838;12.094;2023-02-15T08:21:34;5.50;55.90
18287;DHT22;9269;50.838;12.094;2023-02-15T08:24:05;5.60;55.90
18287;DHT22;9269;50.838;12.094;2023-02-15T08:26:35;5.70;56.00
18287;DHT22;9269;50.838;12.094;2023-02-15T08:29:05;5.90;55.40
18287;DHT22;9269;50.838;12.094;2023-02-15T08:31:36;6.00;55.50
18287;DHT22;9269;50.838;12.094;2023-02-15T08:34:07;5.90;55.50
18287;DHT22;9269;50.838;12.094;2023-02-15T08:36:37;6.00;55.50
18287;DHT22;9269;50.838;12.094;2023-02-15T08:39:07;6.20;55.50
18287;DHT22;9269;50.838;12.094;2023-02-15T08:41:37;6.10;55.30
18287;DHT22;9269;50.838;12.094;2023-02-15T08:44:08;6.30;55.40
18287;DHT22;9269;50.838;12.094;2023-02-15T08:46:39;6.50;55.50
18287;DHT22;9269;50.838;12.094;2023-02-15T08:49:14;6.50;55.40
18287;DHT22;9269;50.838;12.094;2023-02-15T08:51:44;6.70;55.30
18287;DHT22;9269;50.838;12.094;2023-02-15T08:54:14;6.80;55.50
18287;DHT22;9269;50.838;12.094;2023-02-15T08:56:44;7.00;55.30
18287;DHT22;9269;50.838;12.094;2023-02-15T08:59:14;6.90;55.00
18287;DHT22;9269;50.838;12.094;2023-02-15T09:01:44;7.10;54.60
18287;DHT22;9269;50.838;12.094;2023-02-15T09:04:15;7.30;54.70
18287;DHT22;9269;50.838;12.094;2023-02-15T09:06:45;7.30;55.00
18287;DHT22;9269;50.838;12.094;2023-02-15T09:09:16;7.50;54.70
18287;DHT22;9269;50.838;12.094;2023-02-15T09:11:46;7.60;55.10
18287;DHT22;9269;50.838;12.094;2023-02-15T09:14:18;7.60;55.30
18287;DHT22;9269;50.838;12.094;2023-02-15T09:16:49;7.90;55.20
18287;DHT22;9269;50.838;12.094;2023-02-15T09:19:22;7.80;55.30
18287;DHT22;9269;50.838;12.094;2023-02-15T09:21:51;8.10;55.60
18287;DHT22;9269;50.838;12.094;2023-02-15T09:24:22;8.20;54.90
18287;DHT22;9269;50.838;12.094;2023-02-15T09:26:50;8.30;54.70
18287;DHT22;9269;50.838;12.094;2023-02-15T09:29:19;8.40;54.70
18287;DHT22;9269;50.838;12.094;2023-02-15T09:31:50;8.60;54.70
18287;DHT22;9269;50.838;12.094;2023-02-15T09:34:22;8.80;55.00
18287;DHT22;9269;50.838;12.094;2023-02-15T09:36:52;8.90;55.00
18287;DHT22;9269;50.838;12.094;2023-02-15T09:39:23;8.90;54.90
18287;DHT22;9269;50.838;12.094;2023-02-15T09:42:20;9.20;55.00
18287;DHT22;9269;50.838;12.094;2023-02-15T09:45:13;9.40;54.40
18287;DHT22;9269;50.838;12.094;2023-02-15T09:48:01;9.30;54.20
18287;DHT22;9269;50.838;12.094;2023-02-15T09:50:38;9.40;54.40
18287;DHT22;9269;50.838;12.094;2023-02-15T09:53:29;9.50;53.90
18287;DHT22;9269;50.838;12.094;2023-02-15T09:56:04;9.70;54.10
18287;DHT22;9269;50.838;12.094;2023-02-15T09:58:42;9.80;54.10
18287;DHT22;9269;50.838;12.094;2023-02-15T10:01:24;9.90;53.90
18287;DHT22;9269;50.838;12.094;2023-02-15T10:04:12;10.10;53.60
18287;DHT22;9269;50.838;12.094;2023-02-15T10:06:47;10.30;53.30
18287;DHT22;9269;50.838;12.094;2023-02-15T10:12:37;10.60;52.60
18287;DHT22;9269;50.838;12.094;2023-02-15T10:15:29;10.60;52.30
18287;DHT22;9269;50.838;12.094;2023-02-15T10:18:10;10.70;52.70
18287;DHT22;9269;50.838;12.094;2023-02-15T10:20:51;10.80;52.30
18287;DHT22;9269;50.838;12.094;2023-02-15T10:23:41;10.90;52.20
18287;DHT22;9269;50.838;12.094;2023-02-15T10:26:18;11.10;51.60
18287;DHT22;9269;50.838;12.094;2023-02-15T10:28:48;11.30;51.70
18287;DHT22;9269;50.838;12.094;2023-02-15T10:31:24;11.50;51.50
18287;DHT22;9269;50.838;12.094;2023-02-15T10:34:05;11.70;51.60
18287;DHT22;9269;50.838;12.094;2023-02-15T10:36:52;11.90;51.10
18287;DHT22;9269;50.838;12.094;2023-02-15T10:39:28;12.00;51.20
18287;DHT22;9269;50.838;12.094;2023-02-15T10:42:04;12.10;51.00
18287;DHT22;9269;50.838;12.094;2023-02-15T10:44:48;12.20;51.10
18287;DHT22;9269;50.838;12.094;2023-02-15T10:47:34;12.40;50.90
18287;DHT22;9269;50.838;12.094;2023-02-15T10:50:20;12.50;50.10
18287;DHT22;9269;50.838;12.094;2023-02-15T10:53:17;12.60;50.20
18287;DHT22;9269;50.838;12.094;2023-02-15T10:55:55;12.70;49.90
18287;DHT22;9269;50.838;12.094;2023-02-15T10:58:33;12.90;48.80
18287;DHT22;9269;50.838;12.094;2023-02-15T11:01:15;12.90;48.50
18287;DHT22;9269;50.838;12.094;2023-02-15T11:04:13;13.10;48.60
18287;DHT22;9269;50.838;12.094;2023-02-15T11:06:52;13.10;48.10
18287;DHT22;9269;50.838;12.094;2023-02-15T11:09:23;13.20;48.20
18287;DHT22;9269;50.838;12.094;2023-02-15T11:11:57;13.40;48.10
18287;DHT22;9269;50.838;12.094;2023-02-15T11:14:34;13.50;47.60
18287;DHT22;9269;50.838;12.094;2023-02-15T11:17:08;13.50;47.60
18287;DHT22;9269;50.838;12.094;2023-02-15T11:19:41;13.70;47.20
18287;DHT22;9269;50.838;12.094;2023-02-15T11:22:11;13.70;47.20
18287;DHT22;9269;50.838;12.094;2023-02-15T11:24:42;13.80;46.80
18287;DHT22;9269;50.838;12.094;2023-02-15T11:27:19;13.80;46.20
18287;DHT22;9269;50.838;12.094;2023-02-15T11:29:55;13.90;45.30
18287;DHT22;9269;50.838;12.094;2023-02-15T11:32:29;13.90;45.90
18287;DHT22;9269;50.838;12.094;2023-02-15T11:35:02;13.90;46.00
18287;DHT22;9269;50.838;12.094;2023-02-15T11:37:37;14.00;46.50
18287;DHT22;9269;50.838;12.094;2023-02-15T11:40:17;13.80;46.50
18287;DHT22;9269;50.838;12.094;2023-02-15T11:42:55;13.90;46.70
18287;DHT22;9269;50.838;12.094;2023-02-15T11:45:28;13.80;46.10
18287;DHT22;9269;50.838;12.094;2023-02-15T11:47:58;13.90;45.40
18287;DHT22;9269;50.838;12.094;2023-02-15T11:50:29;13.80;45.20
18287;DHT22;9269;50.838;12.094;2023-02-15T11:53:03;13.70;44.80
18287;DHT22;9269;50.838;12.094;2023-02-15T11:55:33;13.70;45.10
18287;DHT22;9269;50.838;12.094;2023-02-15T11:58:10;13.80;44.90
18287;DHT22;9269;50.838;12.094;2023-02-15T12:00:43;13.80;44.80
18287;DHT22;9269;50.838;12.094;2023-02-15T12:03:17;13.90;45.10
18287;DHT22;9269;50.838;12.094;2023-02-15T12:05:55;13.90;45.00
18287;DHT22;9269;50.838;12.094;2023-02-15T12:08:31;14.00;44.80
18287;DHT22;9269;50.838;12.094;2023-02-15T12:11:05;14.00;45.00
18287;DHT22;9269;50.838;12.094;2023-02-15T12:13:56;14.10;44.60
18287;DHT22;9269;50.838;12.094;2023-02-15T12:16:27;14.20;43.90
18287;DHT22;9269;50.838;12.094;2023-02-15T12:18:59;14.20;43.20
18287;DHT22;9269;50.838;12.094;2023-02-15T12:21:31;14.20;43.20
18287;DHT22;9269;50.838;12.094;2023-02-15T12:24:16;14.30;43.20
18287;DHT22;9269;50.838;12.094;2023-02-15T12:26:56;14.30;43.20
18287;DHT22;9269;50.838;12.094;2023-02-15T12:29:28;14.40;42.90
18287;DHT22;9269;50.838;12.094;2023-02-15T12:31:58;14.40;42.70
18287;DHT22;9269;50.838;12.094;2023-02-15T12:34:30;14.50;42.80
18287;DHT22;9269;50.838;12.094;2023-02-15T12:37:10;14.50;42.00
18287;DHT22;9269;50.838;12.094;2023-02-15T12:39:52;14.50;41.10
18287;DHT22;9269;50.838;12.094;2023-02-15T12:42:20;14.60;40.60
18287;DHT22;9269;50.838;12.094;2023-02-15T12:44:58;14.60;41.10
18287;DHT22;9269;50.838;12.094;2023-02-15T12:47:28;14.60;41.30
18287;DHT22;9269;50.838;12.094;2023-02-15T12:50:09;14.70;41.20
18287;DHT22;9269;50.838;12.094;2023-02-15T12:52:45;14.70;40.80
18287;DHT22;9269;50.838;12.094;2023-02-15T12:55:22;14.70;40.70
18287;DHT22;9269;50.838;12.094;2023-02-15T12:58:05;14.60;40.80
18287;DHT22;9269;50.838;12.094;2023-02-15T13:00:35;14.60;40.40
18287;DHT22;9269;50.838;12.094;2023-02-15T13:03:16;14.60;40.30
18287;DHT22;9269;50.838;12.094;2023-02-15T13:05:48;14.60;39.90
18287;DHT22;9269;50.838;12.094;2023-02-15T13:08:21;14.80;40.30
18287;DHT22;9269;50.838;12.094;2023-02-15T13:10:54;14.80;39.70
18287;DHT22;9269;50.838;12.094;2023-02-15T13:13:26;14.80;39.80
18287;DHT22;9269;50.838;12.094;2023-02-15T13:16:00;14.80;39.40
18287;DHT22;9269;50.838;12.094;2023-02-15T13:18:35;14.90;38.50
18287;DHT22;9269;50.838;12.094;2023-02-15T13:21:10;14.90;38.60
18287;DHT22;9269;50.838;12.094;2023-02-15T13:23:43;14.80;37.90
18287;DHT22;9269;50.838;12.094;2023-02-15T13:26:16;14.90;37.60
18287;DHT22;9269;50.838;12.094;2023-02-15T13:28:48;14.90;37.40
18287;DHT22;9269;50.838;12.094;2023-02-15T13:31:21;14.80;37.30
18287;DHT22;9269;50.838;12.094;2023-02-15T13:33:53;14.80;37.20
18287;DHT22;9269;50.838;12.094;2023-02-15T13:36:27;14.90;36.90
18287;DHT22;9269;50.838;12.094;2023-02-15T13:39:04;14.80;37.00
18287;DHT22;9269;50.838;12.094;2023-02-15T13:41:47;14.90;35.60
18287;DHT22;9269;50.838;12.094;2023-02-15T13:44:25;14.90;35.20
18287;DHT22;9269;50.838;12.094;2023-02-15T13:47:08;14.90;35.20
18287;DHT22;9269;50.838;12.094;2023-02-15T13:49:51;14.80;35.10
18287;DHT22;9269;50.838;12.094;2023-02-15T13:52:24;14.80;34.90
18287;DHT22;9269;50.838;12.094;2023-02-15T13:55:11;14.80;34.90
18287;DHT22;9269;50.838;12.094;2023-02-15T13:58:06;14.70;35.00
18287;DHT22;9269;50.838;12.094;2023-02-15T14:00:44;14.70;35.40
18287;DHT22;9269;50.838;12.094;2023-02-15T14:03:42;14.80;35.20
18287;DHT22;9269;50.838;12.094;2023-02-15T14:06:22;14.80;34.90
18287;DHT22;9269;50.838;12.094;2023-02-15T14:09:03;14.90;35.40
18287;DHT22;9269;50.838;12.094;2023-02-15T14:11:40;14.80;35.60
18287;DHT22;9269;50.838;12.094;2023-02-15T14:17:15;14.70;35.70
18287;DHT22;9269;50.838;12.094;2023-02-15T14:19:51;14.70;35.90
18287;DHT22;9269;50.838;12.094;2023-02-15T14:22:28;14.70;35.50
18287;DHT22;9269;50.838;12.094;2023-02-15T14:25:05;14.60;35.70
18287;DHT22;9269;50.838;12.094;2023-02-15T14:27:50;14.60;36.40
18287;DHT22;9269;50.838;12.094;2023-02-15T14:30:26;14.70;35.70
18287;DHT22;9269;50.838;12.094;2023-02-15T14:33:01;14.60;36.00
18287;DHT22;9269;50.838;12.094;2023-02-15T14:35:34;14.60;36.00
18287;DHT22;9269;50.838;12.094;2023-02-15T14:38:14;14.50;35.80
18287;DHT22;9269;50.838;12.094;2023-02-15T14:40:49;14.50;36.20
18287;DHT22;9269;50.838;12.094;2023-02-15T14:43:38;14.50;35.70
18287;DHT22;9269;50.838;12.094;2023-02-15T14:46:15;14.50;35.50
18287;DHT22;9269;50.838;12.094;2023-02-15T14:48:47;14.40;34.90
18287;DHT22;9269;50.838;12.094;2023-02-15T14:52:04;14.30;34.70
18287;DHT22;9269;50.838;12.094;2023-02-15T14:54:53;14.20;34.90
18287;DHT22;9269;50.838;12.094;2023-02-15T14:57:30;14.20;35.10
18287;DHT22;9269;50.838;12.094;2023-02-15T15:00:28;14.20;35.20
18287;DHT22;9269;50.838;12.094;2023-02-15T15:02:59;14.00;35.20
18287;DHT22;9269;50.838;12.094;2023-02-15T15:05:33;14.00;35.30
18287;DHT22;9269;50.838;12.094;2023-02-15T15:08:04;13.90;34.50
18287;DHT22;9269;50.838;12.094;2023-02-15T15:10:43;13.80;35.00
18287;DHT22;9269;50.838;12.094;2023-02-15T15:13:36;13.70;34.70
18287;DHT22;9269;50.838;12.094;2023-02-15T15:16:27;13.60;34.00
18287;DHT22;9269;50.838;12.094;2023-02-15T15:18:58;13.60;34.00
18287;DHT22;9269;50.838;12.094;2023-02-15T15:21:56;13.50;34.60
18287;DHT22;9269;50.838;12.094;2023-02-15T15:24:54;13.40;34.30
18287;DHT22;9269;50.838;12.094;2023-02-15T15:27:40;13.30;34.40
18287;DHT22;9269;50.838;12.094;2023-02-15T15:34:00;13.20;34.60
18287;DHT22;9269;50.838;12.094;2023-02-15T15:37:02;13.10;34.40
18287;DHT22;9269;50.838;12.094;2023-02-15T15:42:49;13.00;35.10
18287;DHT22;9269;50.838;12.094;2023-02-15T15:45:46;12.90;35.40
18287;DHT22;9269;50.838;12.094;2023-02-15T15:48:28;12.80;34.90
18287;DHT22;9269;50.838;12.094;2023-02-15T15:51:00;12.80;35.20
18287;DHT22;9269;50.838;12.094;2023-02-15T15:53:34;12.70;35.10
18287;DHT22;9269;50.838;12.094;2023-02-15T15:56:12;12.70;36.10
18287;DHT22;9269;50.838;12.094;2023-02-15T15:58:47;12.70;36.20
18287;DHT22;9269;50.838;12.094;2023-02-15T16:01:24;12.50;36.30
18287;DHT22;9269;50.838;12.094;2023-02-15T16:03:56;12.60;36.30
18287;DHT22;9269;50.838;12.094;2023-02-15T16:06:27;12.40;36.50
18287;DHT22;9269;50.838;12.094;2023-02-15T16:09:13;12.40;36.50
18287;DHT22;9269;50.838;12.094;2023-02-15T16:11:42;12.40;36.30
18287;DHT22;9269;50.838;12.094;2023-02-15T16:14:16;12.30;36.50
18287;DHT22;9269;50.838;12.094;2023-02-15T16:16:51;12.20;36.50
18287;DHT22;9269;50.838;12.094;2023-02-15T16:19:24;12.20;36.50
18287;DHT22;9269;50.838;12.094;2023-02-15T16:21:57;12.00;36.60
18287;DHT22;9269;50.838;12.094;2023-02-15T16:24:42;12.00;36.90
18287;DHT22;9269;50.838;12.094;2023-02-15T16:27:33;11.80;36.60
18287;DHT22;9269;50.838;12.094;2023-02-15T16:30:27;11.70;36.60
18287;DHT22;9269;50.838;12.094;2023-02-15T16:33:04;11.70;36.50
18287;DHT22;9269;50.838;12.094;2023-02-15T16:35:35;11.60;37.00
18287;DHT22;9269;50.838;12.094;2023-02-15T16:38:08;11.60;37.20
18287;DHT22;9269;50.838;12.094;2023-02-15T16:40:47;11.60;37.40
18287;DHT22;9269;50.838;12.094;2023-02-15T16:43:24;11.40;37.50
18287;DHT22;9269;50.838;12.094;2023-02-15T16:46:03;11.30;37.40